createdAt,value
2017-10-13T00:00:10.860Z,2.80
2017-10-13T00:02:46.011Z,3.83
2017-10-13T00:05:20.769Z,2.17
2017-10-13T00:07:55.902Z,2.70
2017-10-13T00:10:30.700Z,2.80
2017-10-13T00:13:05.937Z,3.07
2017-10-13T00:15:40.986Z,2.20
2017-10-13T00:18:15.917Z,1.97
2017-10-13T00:20:50.989Z,2.20
2017-10-13T00:23:25.901Z,2.37
2017-10-13T00:26:01.225Z,3.27
2017-10-13T00:28:35.891Z,2.80
2017-10-13T00:31:10.716Z,2.73
2017-10-13T00:33:46.085Z,2.70
2017-10-13T00:36:20.745Z,2.87
2017-10-13T00:38:55.998Z,2.70
2017-10-13T00:41:31.042Z,2.93
2017-10-13T00:44:05.406Z,3.30
2017-10-13T00:46:40.037Z,2.77
2017-10-13T00:49:14.913Z,2.67
2017-10-13T00:51:50.258Z,3.30
2017-10-13T00:54:24.665Z,3.13
2017-10-13T00:56:59.069Z,3.57
2017-10-13T00:59:33.197Z,3.30
2017-10-13T01:02:07.272Z,2.67
2017-10-13T01:04:42.656Z,3.23
2017-10-13T01:07:17.601Z,2.60
2017-10-13T01:09:52.830Z,2.60
2017-10-13T01:12:27.781Z,3.43
2017-10-13T01:15:02.817Z,2.70
2017-10-13T01:17:37.813Z,3.77
2017-10-13T01:20:12.540Z,3.00
2017-10-13T01:22:47.301Z,3.10
2017-10-13T01:25:22.209Z,3.87
2017-10-13T01:27:57.085Z,4.50
2017-10-13T01:30:31.721Z,3.73
2017-10-13T01:33:06.748Z,3.80
2017-10-13T01:35:41.797Z,4.07
2017-10-13T01:38:17.140Z,4.50
2017-10-13T01:40:52.149Z,4.50
2017-10-13T01:43:27.001Z,5.83
2017-10-13T01:46:01.765Z,4.70
2017-10-13T01:48:36.761Z,5.20
2017-10-13T01:51:11.604Z,5.77
2017-10-13T01:53:46.714Z,5.40
2017-10-13T01:56:21.600Z,6.27
2017-10-13T01:58:56.497Z,5.47
2017-10-13T02:01:31.484Z,6.10
2017-10-13T02:04:06.600Z,5.97
2017-10-13T02:06:40.817Z,7.20
2017-10-13T02:09:15.287Z,6.10
2017-10-13T02:11:50.945Z,6.53
2017-10-13T02:14:25.550Z,7.10
2017-10-13T02:17:00.748Z,6.83
2017-10-13T02:19:35.526Z,6.60
2017-10-13T02:22:10.368Z,6.23
2017-10-13T02:24:45.769Z,6.47
2017-10-13T02:27:20.050Z,6.43
2017-10-13T02:29:55.389Z,6.20
2017-10-13T02:32:30.453Z,7.03
2017-10-13T02:35:05.093Z,7.50
2017-10-13T02:37:40.476Z,6.53
2017-10-13T02:40:15.001Z,6.17
2017-10-13T02:42:49.719Z,5.80
2017-10-13T02:45:24.224Z,7.13
2017-10-13T02:47:59.149Z,6.63
2017-10-13T02:50:34.109Z,7.10
2017-10-13T02:53:09.169Z,8.93
2017-10-13T02:55:44.068Z,6.53
2017-10-13T02:58:19.289Z,6.40
2017-10-13T03:00:54.197Z,6.47
2017-10-13T03:03:28.921Z,7.23
2017-10-13T03:06:03.986Z,6.10
2017-10-13T03:08:39.146Z,6.03
2017-10-13T03:11:13.911Z,6.53
2017-10-13T03:13:48.833Z,6.10
2017-10-13T03:16:23.807Z,6.60
2017-10-13T03:18:58.590Z,6.30
2017-10-13T03:21:33.413Z,7.20
2017-10-13T03:24:07.897Z,6.93
2017-10-13T03:26:43.106Z,6.30
2017-10-13T03:29:18.254Z,6.70
2017-10-13T03:31:53.481Z,6.30
2017-10-13T03:34:28.581Z,7.33
2017-10-13T03:37:03.765Z,7.87
2017-10-13T03:39:38.666Z,6.87
2017-10-13T03:42:13.669Z,6.07
2017-10-13T03:44:48.664Z,6.37
2017-10-13T03:47:24.005Z,6.93
2017-10-13T03:49:58.589Z,6.33
2017-10-13T03:52:33.718Z,6.63
2017-10-13T03:55:08.197Z,6.23
2017-10-13T03:57:43.697Z,7.53
2017-10-13T04:00:18.813Z,7.07
2017-10-13T04:02:53.972Z,7.63
2017-10-13T04:05:28.949Z,6.30
2017-10-13T04:08:03.597Z,7.20
2017-10-13T04:10:38.734Z,6.73
2017-10-13T04:13:13.779Z,7.87
2017-10-13T04:15:48.817Z,7.00
2017-10-13T04:18:23.692Z,7.50
2017-10-13T04:20:59.068Z,7.10
2017-10-13T04:23:33.905Z,7.50
2017-10-13T04:26:09.149Z,7.13
2017-10-13T04:28:44.084Z,7.90
2017-10-13T04:31:19.691Z,7.87
2017-10-13T04:33:54.657Z,8.10
2017-10-13T04:36:29.269Z,11.47
2017-10-13T04:39:03.761Z,11.63
2017-10-13T04:41:38.960Z,11.77
2017-10-13T04:44:13.386Z,11.03
2017-10-13T04:46:49.009Z,12.60
2017-10-13T04:49:24.345Z,14.70
2017-10-13T04:51:59.584Z,16.33
2017-10-13T04:54:34.592Z,16.40
2017-10-13T04:57:09.721Z,15.07
2017-10-13T04:59:44.755Z,13.33
2017-10-13T05:02:19.456Z,10.80
2017-10-13T05:04:54.061Z,12.93
2017-10-13T05:07:29.313Z,14.10
2017-10-13T05:10:04.136Z,12.93
2017-10-13T05:12:38.894Z,12.17
2017-10-13T05:15:13.657Z,11.77
2017-10-13T05:17:48.720Z,12.23
2017-10-13T05:20:23.481Z,11.77
2017-10-13T05:22:58.081Z,11.13
2017-10-13T05:25:32.489Z,11.97
2017-10-13T05:28:07.308Z,13.67
2017-10-13T05:30:42.460Z,13.30
2017-10-13T05:33:17.653Z,15.43
2017-10-13T05:35:52.277Z,18.23
2017-10-13T05:38:27.554Z,14.70
2017-10-13T05:41:02.829Z,14.30
2017-10-13T05:43:37.529Z,10.90
2017-10-13T05:46:12.192Z,10.50
2017-10-13T05:48:46.840Z,8.80
2017-10-13T05:51:21.717Z,8.77
2017-10-13T05:53:56.889Z,9.00
2017-10-13T05:56:31.977Z,8.73
2017-10-13T05:59:06.949Z,8.10
2017-10-13T06:01:41.781Z,8.70
2017-10-13T06:04:16.580Z,9.03
2017-10-13T06:06:51.287Z,8.23
2017-10-13T06:09:26.489Z,8.80
2017-10-13T06:12:00.902Z,8.70
2017-10-13T06:14:35.129Z,8.30
2017-10-13T06:17:09.629Z,8.63
2017-10-13T06:19:44.736Z,9.33
2017-10-13T06:22:19.911Z,8.10
2017-10-13T06:24:54.658Z,9.30
2017-10-13T06:27:29.845Z,9.90
2017-10-13T06:30:05.013Z,9.30
2017-10-13T06:32:39.741Z,8.17
2017-10-13T06:35:14.729Z,7.87
2017-10-13T06:37:49.370Z,8.27
2017-10-13T06:40:23.776Z,8.20
2017-10-13T06:42:58.825Z,9.30
2017-10-13T06:45:33.261Z,8.70
2017-10-13T06:48:08.197Z,9.57
2017-10-13T06:50:43.169Z,9.40
2017-10-13T06:53:17.790Z,9.00
2017-10-13T06:55:52.246Z,11.27
2017-10-13T06:58:26.916Z,9.87
2017-10-13T07:01:01.845Z,12.30
2017-10-13T07:03:36.829Z,14.20
2017-10-13T07:06:12.697Z,13.90
2017-10-13T07:08:47.901Z,16.10
2017-10-13T07:11:22.568Z,15.50
2017-10-13T07:13:56.641Z,16.53
2017-10-13T07:16:31.798Z,13.83
2017-10-13T07:19:06.784Z,13.30
2017-10-13T07:21:41.181Z,9.80
2017-10-13T07:24:15.981Z,11.63
2017-10-13T07:26:50.829Z,13.30
2017-10-13T07:29:25.125Z,13.60
2017-10-13T07:32:00.257Z,11.70
2017-10-13T07:34:35.277Z,13.03
2017-10-13T07:37:09.927Z,14.73
2017-10-13T07:39:44.873Z,19.67
2017-10-13T07:42:20.086Z,16.73
2017-10-13T07:44:55.066Z,16.00
2017-10-13T07:47:29.690Z,12.60
2017-10-13T07:50:04.289Z,12.60
2017-10-13T07:52:39.522Z,14.13
2017-10-13T07:55:14.623Z,10.97
2017-10-13T07:57:49.448Z,9.60
2017-10-13T08:00:24.499Z,9.63
2017-10-13T08:02:59.630Z,7.60
2017-10-13T08:05:34.505Z,9.63
2017-10-13T08:08:09.290Z,10.13
2017-10-13T08:10:44.053Z,8.10
2017-10-13T08:13:19.469Z,8.13
2017-10-13T08:15:53.981Z,8.77
2017-10-13T08:18:29.700Z,8.40
2017-10-13T08:21:04.273Z,9.07
2017-10-13T08:23:38.758Z,8.87
2017-10-13T08:26:13.733Z,7.93
2017-10-13T08:28:48.614Z,8.50
2017-10-13T08:31:22.936Z,8.00
2017-10-13T08:33:58.270Z,7.40
2017-10-13T08:36:33.037Z,7.00
2017-10-13T08:39:08.002Z,7.10
2017-10-13T08:41:43.349Z,8.50
2017-10-13T08:44:18.457Z,6.60
2017-10-13T08:46:53.176Z,5.97
2017-10-13T08:49:28.314Z,5.80
2017-10-13T08:52:03.588Z,5.70
2017-10-13T08:54:38.618Z,6.50
2017-10-13T08:57:13.709Z,5.80
2017-10-13T08:59:48.741Z,6.10
2017-10-13T09:02:23.384Z,6.10
2017-10-13T09:04:58.034Z,6.20
2017-10-13T09:12:42.961Z,5.43
2017-10-13T09:15:17.993Z,5.13
2017-10-13T09:17:53.053Z,5.07
2017-10-13T09:20:27.852Z,6.10
2017-10-13T09:23:07.699Z,5.90
2017-10-13T09:25:43.109Z,4.90
2017-10-13T09:28:17.441Z,5.13
2017-10-13T09:30:52.246Z,4.57
2017-10-13T09:33:27.459Z,5.07
2017-10-13T09:36:01.982Z,5.13
2017-10-13T09:38:38.193Z,4.70
2017-10-13T09:41:13.300Z,3.50
2017-10-13T09:43:48.233Z,4.00
2017-10-13T09:46:23.161Z,4.87
2017-10-13T09:48:57.717Z,4.60
2017-10-13T09:51:32.476Z,4.53
2017-10-13T09:54:07.850Z,7.20
2017-10-13T09:56:43.177Z,5.27
2017-10-13T09:59:18.422Z,4.73
2017-10-13T10:01:53.386Z,4.70
2017-10-13T10:04:28.361Z,5.20
2017-10-13T10:07:02.954Z,4.37
2017-10-13T10:09:37.994Z,5.40
2017-10-13T10:12:12.961Z,4.87
2017-10-13T10:14:48.098Z,5.77
2017-10-13T10:17:23.053Z,5.20
2017-10-13T10:19:57.878Z,4.10
2017-10-13T10:22:32.863Z,3.93
2017-10-13T10:25:08.805Z,5.20
2017-10-13T10:27:43.416Z,3.77
2017-10-13T10:30:18.551Z,3.93
2017-10-13T10:32:53.678Z,4.37
2017-10-13T10:35:27.929Z,5.97
2017-10-13T10:38:02.938Z,4.50
2017-10-13T10:40:38.133Z,4.63
2017-10-13T10:43:13.292Z,4.50
2017-10-13T10:45:48.325Z,4.40
2017-10-13T10:48:23.173Z,5.57
2017-10-13T10:50:57.970Z,5.40
2017-10-13T10:53:32.313Z,5.00
2017-10-13T10:56:07.348Z,4.00
2017-10-13T10:58:42.294Z,5.33
2017-10-13T11:01:17.026Z,4.20
2017-10-13T11:03:51.764Z,5.07
2017-10-13T11:06:26.970Z,5.30
2017-10-13T11:09:02.145Z,4.50
2017-10-13T11:11:36.997Z,4.60
2017-10-13T11:14:11.874Z,5.33
2017-10-13T11:16:47.009Z,4.80
2017-10-13T11:19:21.838Z,4.13
2017-10-13T11:21:56.818Z,4.10
2017-10-13T11:24:31.729Z,5.07
2017-10-13T11:27:06.545Z,5.47
2017-10-13T11:29:41.612Z,5.27
2017-10-13T11:32:16.625Z,5.27
2017-10-13T11:34:51.672Z,5.87
2017-10-13T11:37:26.674Z,5.40
2017-10-13T11:40:01.706Z,6.73
2017-10-13T11:42:36.114Z,6.77
2017-10-13T11:45:11.456Z,6.63
2017-10-13T11:47:46.546Z,6.63
2017-10-13T11:50:21.509Z,6.20
2017-10-13T11:52:56.242Z,6.40
2017-10-13T11:55:30.458Z,7.17
2017-10-13T11:58:05.265Z,7.23
2017-10-13T12:00:39.682Z,7.10
2017-10-13T12:03:14.741Z,7.30
2017-10-13T12:05:49.866Z,7.83
2017-10-13T12:08:24.893Z,7.60
2017-10-13T12:10:59.840Z,7.37
2017-10-13T12:13:34.953Z,7.87
2017-10-13T12:16:10.188Z,7.80
2017-10-13T12:18:45.281Z,7.67
2017-10-13T12:21:20.110Z,7.97
2017-10-13T12:23:55.236Z,8.83
2017-10-13T12:26:30.241Z,7.53
2017-10-13T12:29:05.277Z,9.60
2017-10-13T12:31:40.426Z,8.57
2017-10-13T12:34:15.181Z,8.30
2017-10-13T12:36:49.773Z,9.30
2017-10-13T12:39:24.666Z,9.30
2017-10-13T12:41:59.140Z,8.37
2017-10-13T12:44:34.051Z,9.20
2017-10-13T12:47:08.904Z,10.23
2017-10-13T12:49:44.232Z,10.50
2017-10-13T12:52:19.183Z,8.70
2017-10-13T12:54:53.801Z,8.20
2017-10-13T12:57:28.445Z,7.57
2017-10-13T13:00:03.367Z,8.43
2017-10-13T13:02:38.491Z,8.27
2017-10-13T13:05:13.553Z,10.07
2017-10-13T13:07:48.601Z,11.40
2017-10-13T13:10:23.629Z,11.77
2017-10-13T13:12:58.576Z,10.30
2017-10-13T13:15:32.933Z,9.47
2017-10-13T13:18:07.990Z,10.97
2017-10-13T13:20:43.021Z,10.60
2017-10-13T13:23:18.189Z,9.47
2017-10-13T13:25:52.948Z,9.13
2017-10-13T13:28:28.157Z,10.10
2017-10-13T13:31:03.381Z,8.90
2017-10-13T13:33:38.109Z,10.00
2017-10-13T13:36:13.217Z,8.63
2017-10-13T13:38:48.013Z,8.07
2017-10-13T13:41:22.770Z,9.40
2017-10-13T13:43:57.610Z,8.10
2017-10-13T13:46:32.316Z,8.07
2017-10-13T13:49:07.337Z,8.03
2017-10-13T13:51:42.463Z,8.23
2017-10-13T13:54:17.248Z,7.77
2017-10-13T13:56:52.044Z,8.40
2017-10-13T13:59:27.041Z,8.20
2017-10-13T14:02:02.173Z,7.90
2017-10-13T14:04:36.597Z,7.33
2017-10-13T14:07:11.509Z,7.57
2017-10-13T14:09:46.320Z,6.97
2017-10-13T14:12:21.233Z,8.13
2017-10-13T14:14:56.081Z,7.47
2017-10-13T14:17:31.045Z,7.13
2017-10-13T14:20:05.918Z,6.63
2017-10-13T14:22:40.836Z,7.00
2017-10-13T14:25:15.706Z,6.80
2017-10-13T14:27:50.658Z,6.80
2017-10-13T14:30:25.617Z,7.43
2017-10-13T14:33:00.613Z,6.93
2017-10-13T14:35:35.465Z,7.60
2017-10-13T14:38:10.451Z,8.03
2017-10-13T14:40:45.366Z,10.10
2017-10-13T14:43:23.190Z,7.73
2017-10-13T14:45:57.854Z,6.80
2017-10-13T14:48:32.837Z,7.80
2017-10-13T14:51:07.348Z,8.20
2017-10-13T14:53:42.113Z,7.80
2017-10-13T14:56:17.356Z,6.70
2017-10-13T14:58:52.472Z,9.60
2017-10-13T15:01:27.313Z,11.50
2017-10-13T15:04:02.481Z,12.40
2017-10-13T15:06:37.693Z,9.30
2017-10-13T15:09:12.301Z,9.63
2017-10-13T15:11:46.741Z,13.23
2017-10-13T15:14:21.614Z,15.87
2017-10-13T15:16:56.592Z,11.77
2017-10-13T15:19:31.661Z,11.43
2017-10-13T15:22:07.053Z,11.87
2017-10-13T15:24:47.601Z,9.90
2017-10-13T15:27:27.714Z,11.57
2017-10-13T15:30:08.216Z,10.63
2017-10-13T15:32:48.125Z,12.57
2017-10-13T15:35:28.289Z,17.60
2017-10-13T15:38:08.697Z,17.37
2017-10-13T15:40:48.735Z,14.67
2017-10-13T15:43:29.458Z,11.20
2017-10-13T15:46:09.624Z,9.87
2017-10-13T15:48:44.673Z,9.50
2017-10-13T15:51:24.857Z,9.70
2017-10-13T15:54:00.029Z,10.37
2017-10-13T15:56:34.993Z,10.03
2017-10-13T15:59:09.773Z,8.60
2017-10-13T16:01:44.677Z,9.47
2017-10-13T16:04:19.931Z,10.57
2017-10-13T16:06:54.660Z,9.53
2017-10-13T16:09:29.708Z,8.60
2017-10-13T16:12:04.977Z,9.57
2017-10-13T16:14:40.149Z,8.83
2017-10-13T16:17:15.088Z,10.30
2017-10-13T16:19:50.225Z,9.50
2017-10-13T16:22:25.064Z,9.33
2017-10-13T16:25:00.217Z,10.50
2017-10-13T16:27:35.205Z,9.87
2017-10-13T16:30:10.320Z,10.97
2017-10-13T16:32:45.493Z,10.40
2017-10-13T16:35:20.524Z,10.37
2017-10-13T16:37:55.473Z,10.03
2017-10-13T16:40:30.461Z,10.60
2017-10-13T16:43:05.381Z,9.73
2017-10-13T16:45:40.576Z,10.17
2017-10-13T16:48:15.570Z,11.50
2017-10-13T16:50:50.440Z,12.33
2017-10-13T16:53:25.230Z,9.53
2017-10-13T16:55:59.517Z,10.80
2017-10-13T16:58:34.181Z,11.17
2017-10-13T17:01:09.508Z,12.47
2017-10-13T17:03:44.746Z,15.30
2017-10-13T17:06:18.801Z,12.67
2017-10-13T17:08:53.275Z,12.83
2017-10-13T17:11:27.741Z,13.03
2017-10-13T17:14:02.873Z,12.07
2017-10-13T17:16:37.965Z,13.30
2017-10-13T17:19:12.853Z,14.63
2017-10-13T17:21:47.788Z,15.20
2017-10-13T17:24:22.834Z,14.43
2017-10-13T17:26:58.130Z,13.47
2017-10-13T17:29:33.297Z,14.40
2017-10-13T17:32:08.301Z,13.60
2017-10-13T17:34:43.271Z,14.97
2017-10-13T17:37:18.320Z,15.37
2017-10-13T17:39:53.038Z,16.00
2017-10-13T17:42:27.652Z,13.80
2017-10-13T17:45:02.562Z,12.07
2017-10-13T17:47:37.610Z,12.60
2017-10-13T17:50:12.449Z,12.13
2017-10-13T17:52:47.024Z,12.97
2017-10-13T17:55:22.308Z,12.73
2017-10-13T17:57:57.341Z,12.63
2017-10-13T18:00:32.165Z,11.73
2017-10-13T18:03:06.993Z,12.50
2017-10-13T18:05:42.182Z,12.30
2017-10-13T18:08:16.781Z,12.23
2017-10-13T18:10:51.406Z,11.20
2017-10-13T18:13:26.688Z,11.50
2017-10-13T18:16:01.562Z,12.97
2017-10-13T18:18:36.798Z,13.83
2017-10-13T18:21:11.945Z,14.60
2017-10-13T18:23:47.278Z,15.30
2017-10-13T18:26:22.498Z,15.30
2017-10-13T18:28:57.761Z,15.03
2017-10-13T18:31:32.474Z,13.20
2017-10-13T18:34:06.757Z,12.40
2017-10-13T18:36:41.581Z,12.80
2017-10-13T18:39:16.102Z,11.00
2017-10-13T18:41:50.925Z,12.07
2017-10-13T18:44:26.257Z,10.50
2017-10-13T18:47:01.861Z,11.27
2017-10-13T18:49:36.911Z,11.47
2017-10-13T18:52:11.794Z,11.77
2017-10-13T18:54:46.804Z,10.70
2017-10-13T18:57:21.780Z,11.40
2017-10-13T18:59:56.777Z,12.20
2017-10-13T19:02:31.091Z,13.30
2017-10-13T19:05:06.241Z,12.27
2017-10-13T19:07:41.281Z,12.83
2017-10-13T19:10:16.409Z,12.33
2017-10-13T19:12:51.473Z,11.97
2017-10-13T19:15:26.151Z,12.10
2017-10-13T19:18:01.777Z,12.60
2017-10-13T19:20:36.614Z,13.10
2017-10-13T19:23:11.706Z,12.50
2017-10-13T19:25:46.637Z,12.43
2017-10-13T19:28:22.033Z,12.47
2017-10-13T19:30:56.593Z,12.60
2017-10-13T19:33:31.609Z,13.83
2017-10-13T19:36:08.443Z,12.40
2017-10-13T19:38:43.734Z,13.00
2017-10-13T19:41:18.864Z,13.33
2017-10-13T19:43:54.006Z,14.10
2017-10-13T19:46:29.045Z,13.80
2017-10-13T19:49:03.985Z,14.40
2017-10-13T19:51:39.481Z,14.40
2017-10-13T19:54:14.241Z,15.40
2017-10-13T19:56:49.089Z,14.50
2017-10-13T19:59:24.125Z,13.90
2017-10-13T20:01:58.699Z,15.93
2017-10-13T20:04:33.719Z,14.90
2017-10-13T20:07:08.866Z,15.77
2017-10-13T20:09:43.302Z,14.03
2017-10-13T20:12:17.621Z,15.33
2017-10-13T20:14:52.349Z,15.00
2017-10-13T20:17:27.444Z,15.40
2017-10-13T20:20:02.257Z,14.60
2017-10-13T20:22:37.301Z,14.53
2017-10-13T20:25:11.845Z,15.40
2017-10-13T20:27:46.897Z,16.37
2017-10-13T20:30:21.729Z,15.77
2017-10-13T20:32:57.037Z,15.63
2017-10-13T20:35:32.170Z,14.80
2017-10-13T20:38:07.281Z,14.90
2017-10-13T20:40:42.272Z,14.47
2017-10-13T20:43:16.996Z,15.10
2017-10-13T20:45:51.721Z,16.27
2017-10-13T20:48:26.929Z,16.00
2017-10-13T20:51:01.966Z,15.60
2017-10-13T20:53:37.241Z,13.77
2017-10-13T20:56:12.062Z,15.90
2017-10-13T20:58:47.392Z,15.30
2017-10-13T21:01:22.233Z,15.57
2017-10-13T21:03:57.358Z,15.00
2017-10-13T21:06:32.565Z,15.77
2017-10-13T21:09:07.584Z,15.27
2017-10-13T21:11:42.016Z,16.03
2017-10-13T21:14:17.040Z,15.60
2017-10-13T21:16:51.973Z,16.00
2017-10-13T21:19:27.116Z,15.90
2017-10-13T21:22:01.684Z,15.80
2017-10-13T21:24:36.772Z,16.10
2017-10-13T21:27:11.712Z,15.77
2017-10-13T21:29:47.086Z,16.20
2017-10-13T21:32:22.570Z,16.60
2017-10-13T21:34:57.478Z,17.13
2017-10-13T21:37:32.405Z,18.20
2017-10-13T21:40:07.449Z,17.00
2017-10-13T21:42:42.361Z,17.17
2017-10-13T21:45:17.016Z,17.70
2017-10-13T21:47:51.979Z,17.17
2017-10-13T21:50:26.961Z,16.53
2017-10-13T21:53:02.130Z,17.37
2017-10-13T21:55:37.301Z,15.60
2017-10-13T21:58:12.609Z,17.80
2017-10-13T22:00:47.918Z,17.87
2017-10-13T22:03:23.038Z,16.87
2017-10-13T22:05:58.440Z,17.20
2017-10-13T22:08:33.182Z,17.70
2017-10-13T22:11:07.945Z,15.87
2017-10-13T22:13:42.854Z,16.80
2017-10-13T22:16:17.835Z,16.70
2017-10-13T22:18:52.814Z,18.00
2017-10-13T22:21:27.204Z,17.57
2017-10-13T22:24:02.041Z,17.30
2017-10-13T22:26:36.733Z,16.00
2017-10-13T22:29:12.073Z,17.90
2017-10-13T22:31:47.110Z,17.07
2017-10-13T22:34:21.850Z,15.47
2017-10-13T22:36:57.129Z,17.53
2017-10-13T22:39:32.185Z,17.50
2017-10-13T22:42:06.713Z,16.77
2017-10-13T22:44:41.868Z,17.03
2017-10-13T22:47:16.888Z,17.07
2017-10-13T22:49:52.105Z,17.30
2017-10-13T22:52:28.841Z,17.20
2017-10-13T22:55:03.442Z,16.93
2017-10-13T22:57:37.818Z,17.67
2017-10-13T23:00:12.289Z,17.30
2017-10-13T23:02:47.493Z,16.67
2017-10-13T23:05:22.786Z,16.83
2017-10-13T23:07:57.674Z,16.00
2017-10-13T23:10:32.806Z,15.97
2017-10-13T23:13:08.229Z,16.07
2017-10-13T23:15:43.049Z,16.27
2017-10-13T23:18:18.070Z,15.93
2017-10-13T23:20:53.209Z,15.60
2017-10-13T23:23:27.949Z,16.67
2017-10-13T23:26:02.870Z,16.20
2017-10-13T23:28:38.628Z,15.67
2017-10-13T23:31:13.157Z,16.97
2017-10-13T23:33:48.410Z,16.53
2017-10-13T23:36:23.319Z,16.00
2017-10-13T23:38:58.572Z,15.70
2017-10-13T23:41:34.208Z,16.73
2017-10-13T23:44:09.421Z,14.83
2017-10-13T23:46:44.338Z,15.13
2017-10-13T23:49:19.294Z,14.30
2017-10-13T23:51:54.221Z,14.70
2017-10-13T23:54:29.330Z,14.60
2017-10-13T23:57:04.249Z,15.57
2017-10-13T23:59:38.804Z,14.80
